sensor_id;sensor_type;location;lat;lon;timestamp;P1;durP1;ratioP1;P2;durP2;ratioP2
16478;SDS011;8350;52.316;10.530;2023-08-20T00:01:57;21.75;;;19.67;;
16478;SDS011;8350;52.316;10.530;2023-08-20T00:04:25;21.83;;;19.88;;
16478;SDS011;8350;52.316;10.530;2023-08-20T00:06:53;23.70;;;21.63;;
16478;SDS011;8350;52.316;10.530;2023-08-20T00:09:22;25.25;;;23.05;;
16478;SDS011;8350;52.316;10.530;2023-08-20T00:11:52;25.30;;;23.00;;
16478;SDS011;8350;52.316;10.530;2023-08-20T00:14:19;28.65;;;25.83;;
16478;SDS011;8350;52.316;10.530;2023-08-20T00:16:47;26.58;;;23.95;;
16478;SDS011;8350;52.316;10.530;2023-08-20T00:19:15;27.35;;;24.58;;
16478;SDS011;8350;52.316;10.530;2023-08-20T00:21:42;26.02;;;23.52;;
16478;SDS011;8350;52.316;10.530;2023-08-20T00:24:11;23.77;;;21.48;;
16478;SDS011;8350;52.316;10.530;2023-08-20T00:26:39;28.48;;;25.88;;
16478;SDS011;8350;52.316;10.530;2023-08-20T00:29:06;29.38;;;26.45;;
16478;SDS011;8350;52.316;10.530;2023-08-20T00:31:36;29.92;;;27.08;;
16478;SDS011;8350;52.316;10.530;2023-08-20T00:34:04;30.45;;;27.42;;
16478;SDS011;8350;52.316;10.530;2023-08-20T00:36:31;30.45;;;27.65;;
16478;SDS011;8350;52.316;10.530;2023-08-20T00:38:58;29.70;;;26.73;;
16478;SDS011;8350;52.316;10.530;2023-08-20T00:41:25;31.17;;;28.00;;
16478;SDS011;8350;52.316;10.530;2023-08-20T00:43:52;28.65;;;25.95;;
16478;SDS011;8350;52.316;10.530;2023-08-20T00:46:24;30.35;;;27.45;;
16478;SDS011;8350;52.316;10.530;2023-08-20T00:48:51;29.00;;;26.08;;
16478;SDS011;8350;52.316;10.530;2023-08-20T00:51:19;30.90;;;27.92;;
16478;SDS011;8350;52.316;10.530;2023-08-20T00:53:46;28.73;;;25.65;;
16478;SDS011;8350;52.316;10.530;2023-08-20T00:56:12;27.63;;;25.02;;
16478;SDS011;8350;52.316;10.530;2023-08-20T00:58:39;28.13;;;25.30;;
16478;SDS011;8350;52.316;10.530;2023-08-20T01:01:07;27.98;;;25.40;;
16478;SDS011;8350;52.316;10.530;2023-08-20T01:03:35;28.35;;;25.63;;
16478;SDS011;8350;52.316;10.530;2023-08-20T01:06:19;28.27;;;23.98;;
16478;SDS011;8350;52.316;10.530;2023-08-20T01:09:01;27.17;;;24.52;;
16478;SDS011;8350;52.316;10.530;2023-08-20T01:11:36;25.52;;;23.05;;
16478;SDS011;8350;52.316;10.530;2023-08-20T01:14:13;26.88;;;24.13;;
16478;SDS011;8350;52.316;10.530;2023-08-20T01:16:54;27.35;;;24.73;;
16478;SDS011;8350;52.316;10.530;2023-08-20T01:19:22;25.63;;;23.13;;
16478;SDS011;8350;52.316;10.530;2023-08-20T01:21:56;25.08;;;22.67;;
16478;SDS011;8350;52.316;10.530;2023-08-20T01:24:44;23.88;;;21.50;;
16478;SDS011;8350;52.316;10.530;2023-08-20T01:27:20;26.00;;;23.30;;
16478;SDS011;8350;52.316;10.530;2023-08-20T01:30:05;22.63;;;20.52;;
16478;SDS011;8350;52.316;10.530;2023-08-20T01:32:33;24.08;;;21.80;;
16478;SDS011;8350;52.316;10.530;2023-08-20T01:35:01;25.55;;;23.00;;
16478;SDS011;8350;52.316;10.530;2023-08-20T01:37:29;26.05;;;23.35;;
16478;SDS011;8350;52.316;10.530;2023-08-20T01:39:57;26.17;;;23.40;;
16478;SDS011;8350;52.316;10.530;2023-08-20T01:42:24;25.70;;;23.02;;
16478;SDS011;8350;52.316;10.530;2023-08-20T01:44:51;25.52;;;22.83;;
16478;SDS011;8350;52.316;10.530;2023-08-20T01:47:23;24.25;;;21.67;;
16478;SDS011;8350;52.316;10.530;2023-08-20T01:49:50;23.45;;;21.15;;
16478;SDS011;8350;52.316;10.530;2023-08-20T01:52:17;26.23;;;23.58;;
16478;SDS011;8350;52.316;10.530;2023-08-20T01:54:44;24.73;;;21.38;;
16478;SDS011;8350;52.316;10.530;2023-08-20T01:57:11;25.17;;;22.02;;
16478;SDS011;8350;52.316;10.530;2023-08-20T01:59:38;25.95;;;23.25;;
16478;SDS011;8350;52.316;10.530;2023-08-20T02:02:06;25.75;;;23.33;;
16478;SDS011;8350;52.316;10.530;2023-08-20T02:04:34;26.13;;;23.67;;
16478;SDS011;8350;52.316;10.530;2023-08-20T02:07:01;25.50;;;23.00;;
16478;SDS011;8350;52.316;10.530;2023-08-20T02:09:28;27.08;;;24.38;;
16478;SDS011;8350;52.316;10.530;2023-08-20T02:11:55;26.10;;;23.65;;
16478;SDS011;8350;52.316;10.530;2023-08-20T02:14:22;26.42;;;23.77;;
16478;SDS011;8350;52.316;10.530;2023-08-20T02:16:49;26.90;;;24.30;;
16478;SDS011;8350;52.316;10.530;2023-08-20T02:19:16;25.60;;;23.15;;
16478;SDS011;8350;52.316;10.530;2023-08-20T02:21:44;25.30;;;22.77;;
16478;SDS011;8350;52.316;10.530;2023-08-20T02:24:11;26.88;;;24.13;;
16478;SDS011;8350;52.316;10.530;2023-08-20T02:26:38;26.85;;;24.13;;
16478;SDS011;8350;52.316;10.530;2023-08-20T02:29:05;26.25;;;22.88;;
16478;SDS011;8350;52.316;10.530;2023-08-20T02:31:32;24.73;;;22.15;;
16478;SDS011;8350;52.316;10.530;2023-08-20T02:33:59;25.85;;;23.25;;
16478;SDS011;8350;52.316;10.530;2023-08-20T02:36:26;27.48;;;24.75;;
16478;SDS011;8350;52.316;10.530;2023-08-20T02:38:54;26.15;;;23.65;;
16478;SDS011;8350;52.316;10.530;2023-08-20T02:41:24;27.20;;;23.85;;
16478;SDS011;8350;52.316;10.530;2023-08-20T02:43:51;23.25;;;20.85;;
16478;SDS011;8350;52.316;10.530;2023-08-20T02:46:18;21.00;;;18.95;;
16478;SDS011;8350;52.316;10.530;2023-08-20T02:48:45;22.92;;;20.55;;
16478;SDS011;8350;52.316;10.530;2023-08-20T02:51:14;22.85;;;20.45;;
16478;SDS011;8350;52.316;10.530;2023-08-20T02:53:41;23.77;;;21.27;;
16478;SDS011;8350;52.316;10.530;2023-08-20T02:56:09;24.23;;;21.45;;
16478;SDS011;8350;52.316;10.530;2023-08-20T02:58:36;23.95;;;21.55;;
16478;SDS011;8350;52.316;10.530;2023-08-20T03:01:03;23.67;;;21.30;;
16478;SDS011;8350;52.316;10.530;2023-08-20T03:03:31;25.17;;;22.67;;
16478;SDS011;8350;52.316;10.530;2023-08-20T03:05:58;25.25;;;22.45;;
16478;SDS011;8350;52.316;10.530;2023-08-20T03:08:25;22.95;;;19.98;;
16478;SDS011;8350;52.316;10.530;2023-08-20T03:10:55;19.95;;;17.92;;
16478;SDS011;8350;52.316;10.530;2023-08-20T03:13:23;20.77;;;18.75;;
16478;SDS011;8350;52.316;10.530;2023-08-20T03:15:50;20.70;;;18.50;;
16478;SDS011;8350;52.316;10.530;2023-08-20T03:18:17;18.38;;;16.70;;
16478;SDS011;8350;52.316;10.530;2023-08-20T03:20:44;21.58;;;19.50;;
16478;SDS011;8350;52.316;10.530;2023-08-20T03:23:11;19.42;;;17.65;;
16478;SDS011;8350;52.316;10.530;2023-08-20T03:25:38;17.13;;;15.43;;
16478;SDS011;8350;52.316;10.530;2023-08-20T03:28:05;18.50;;;16.70;;
16478;SDS011;8350;52.316;10.530;2023-08-20T03:30:33;19.63;;;17.73;;
16478;SDS011;8350;52.316;10.530;2023-08-20T03:33:00;17.90;;;16.10;;
16478;SDS011;8350;52.316;10.530;2023-08-20T03:35:27;19.13;;;17.25;;
16478;SDS011;8350;52.316;10.530;2023-08-20T03:37:54;19.25;;;17.35;;
16478;SDS011;8350;52.316;10.530;2023-08-20T03:40:21;17.40;;;15.48;;
16478;SDS011;8350;52.316;10.530;2023-08-20T03:42:48;19.52;;;17.35;;
16478;SDS011;8350;52.316;10.530;2023-08-20T03:45:15;19.88;;;18.00;;
16478;SDS011;8350;52.316;10.530;2023-08-20T03:47:43;22.83;;;19.90;;
16478;SDS011;8350;52.316;10.530;2023-08-20T03:50:12;23.05;;;20.60;;
16478;SDS011;8350;52.316;10.530;2023-08-20T03:52:39;23.42;;;20.92;;
16478;SDS011;8350;52.316;10.530;2023-08-20T03:55:06;22.20;;;19.52;;
16478;SDS011;8350;52.316;10.530;2023-08-20T03:57:33;24.67;;;22.30;;
16478;SDS011;8350;52.316;10.530;2023-08-20T04:00:00;21.13;;;19.08;;
16478;SDS011;8350;52.316;10.530;2023-08-20T04:02:28;21.13;;;18.83;;
16478;SDS011;8350;52.316;10.530;2023-08-20T04:04:58;20.73;;;18.33;;
16478;SDS011;8350;52.316;10.530;2023-08-20T04:07:25;19.25;;;17.27;;
16478;SDS011;8350;52.316;10.530;2023-08-20T04:09:52;19.27;;;17.38;;
16478;SDS011;8350;52.316;10.530;2023-08-20T04:12:19;19.52;;;17.73;;
16478;SDS011;8350;52.316;10.530;2023-08-20T04:14:48;17.58;;;15.88;;
16478;SDS011;8350;52.316;10.530;2023-08-20T04:17:15;18.85;;;17.05;;
16478;SDS011;8350;52.316;10.530;2023-08-20T04:19:42;17.40;;;15.68;;
16478;SDS011;8350;52.316;10.530;2023-08-20T04:22:10;16.48;;;14.90;;
16478;SDS011;8350;52.316;10.530;2023-08-20T04:24:37;14.90;;;13.48;;
16478;SDS011;8350;52.316;10.530;2023-08-20T04:27:04;16.42;;;14.93;;
16478;SDS011;8350;52.316;10.530;2023-08-20T04:29:32;17.70;;;15.93;;
16478;SDS011;8350;52.316;10.530;2023-08-20T04:31:59;16.35;;;13.98;;
16478;SDS011;8350;52.316;10.530;2023-08-20T04:34:26;18.77;;;17.02;;
16478;SDS011;8350;52.316;10.530;2023-08-20T04:36:53;19.48;;;17.58;;
16478;SDS011;8350;52.316;10.530;2023-08-20T04:39:22;17.48;;;15.82;;
16478;SDS011;8350;52.316;10.530;2023-08-20T04:41:49;18.50;;;16.65;;
16478;SDS011;8350;52.316;10.530;2023-08-20T04:44:15;23.35;;;20.92;;
16478;SDS011;8350;52.316;10.530;2023-08-20T04:46:42;21.20;;;18.80;;
16478;SDS011;8350;52.316;10.530;2023-08-20T04:49:09;22.38;;;19.42;;
16478;SDS011;8350;52.316;10.530;2023-08-20T04:51:36;24.58;;;22.17;;
16478;SDS011;8350;52.316;10.530;2023-08-20T04:54:10;24.25;;;21.85;;
16478;SDS011;8350;52.316;10.530;2023-08-20T04:56:39;26.17;;;23.48;;
16478;SDS011;8350;52.316;10.530;2023-08-20T04:59:05;26.23;;;23.55;;
16478;SDS011;8350;52.316;10.530;2023-08-20T05:01:32;27.25;;;24.38;;
16478;SDS011;8350;52.316;10.530;2023-08-20T05:03:59;25.85;;;23.10;;
16478;SDS011;8350;52.316;10.530;2023-08-20T05:06:26;23.63;;;21.23;;
16478;SDS011;8350;52.316;10.530;2023-08-20T05:08:53;20.40;;;18.40;;
16478;SDS011;8350;52.316;10.530;2023-08-20T05:11:20;23.45;;;21.08;;
16478;SDS011;8350;52.316;10.530;2023-08-20T05:13:52;21.83;;;19.52;;
16478;SDS011;8350;52.316;10.530;2023-08-20T05:16:21;17.85;;;16.15;;
16478;SDS011;8350;52.316;10.530;2023-08-20T05:18:48;18.92;;;16.98;;
16478;SDS011;8350;52.316;10.530;2023-08-20T05:21:15;17.27;;;15.77;;
16478;SDS011;8350;52.316;10.530;2023-08-20T05:23:42;17.20;;;15.60;;
16478;SDS011;8350;52.316;10.530;2023-08-20T05:26:09;18.70;;;16.80;;
16478;SDS011;8350;52.316;10.530;2023-08-20T05:28:36;14.15;;;12.95;;
16478;SDS011;8350;52.316;10.530;2023-08-20T05:31:05;16.73;;;15.15;;
16478;SDS011;8350;52.316;10.530;2023-08-20T05:33:32;16.48;;;14.93;;
16478;SDS011;8350;52.316;10.530;2023-08-20T05:35:59;14.20;;;12.80;;
16478;SDS011;8350;52.316;10.530;2023-08-20T05:38:26;15.98;;;14.48;;
16478;SDS011;8350;52.316;10.530;2023-08-20T05:40:53;14.70;;;13.20;;
16478;SDS011;8350;52.316;10.530;2023-08-20T05:43:20;15.30;;;13.88;;
16478;SDS011;8350;52.316;10.530;2023-08-20T05:45:46;15.98;;;14.48;;
16478;SDS011;8350;52.316;10.530;2023-08-20T05:48:15;14.25;;;12.43;;
16478;SDS011;8350;52.316;10.530;2023-08-20T05:50:41;14.43;;;13.13;;
16478;SDS011;8350;52.316;10.530;2023-08-20T05:53:08;14.10;;;12.90;;
16478;SDS011;8350;52.316;10.530;2023-08-20T05:55:35;12.15;;;11.02;;
16478;SDS011;8350;52.316;10.530;2023-08-20T05:58:02;14.70;;;13.07;;
16478;SDS011;8350;52.316;10.530;2023-08-20T06:00:29;12.98;;;11.63;;
16478;SDS011;8350;52.316;10.530;2023-08-20T06:02:56;12.07;;;10.95;;
16478;SDS011;8350;52.316;10.530;2023-08-20T06:05:24;10.88;;;9.88;;
16478;SDS011;8350;52.316;10.530;2023-08-20T06:07:52;9.80;;;8.80;;
16478;SDS011;8350;52.316;10.530;2023-08-20T06:10:19;9.90;;;9.00;;
16478;SDS011;8350;52.316;10.530;2023-08-20T06:12:46;9.30;;;7.85;;
16478;SDS011;8350;52.316;10.530;2023-08-20T06:15:13;10.57;;;9.07;;
16478;SDS011;8350;52.316;10.530;2023-08-20T06:17:53;9.43;;;8.45;;
16478;SDS011;8350;52.316;10.530;2023-08-20T06:20:20;9.13;;;7.90;;
16478;SDS011;8350;52.316;10.530;2023-08-20T06:22:49;8.68;;;7.30;;
16478;SDS011;8350;52.316;10.530;2023-08-20T06:25:16;8.70;;;7.85;;
16478;SDS011;8350;52.316;10.530;2023-08-20T06:27:43;7.65;;;6.95;;
16478;SDS011;8350;52.316;10.530;2023-08-20T06:30:10;7.13;;;6.50;;
16478;SDS011;8350;52.316;10.530;2023-08-20T06:32:40;6.63;;;5.90;;
16478;SDS011;8350;52.316;10.530;2023-08-20T06:35:07;7.07;;;6.18;;
16478;SDS011;8350;52.316;10.530;2023-08-20T06:37:35;6.55;;;5.82;;
16478;SDS011;8350;52.316;10.530;2023-08-20T06:40:04;7.28;;;6.25;;
16478;SDS011;8350;52.316;10.530;2023-08-20T06:42:32;8.77;;;6.78;;
16478;SDS011;8350;52.316;10.530;2023-08-20T06:44:59;6.63;;;5.93;;
16478;SDS011;8350;52.316;10.530;2023-08-20T06:47:29;7.60;;;6.30;;
16478;SDS011;8350;52.316;10.530;2023-08-20T06:49:56;9.40;;;8.48;;
16478;SDS011;8350;52.316;10.530;2023-08-20T06:52:23;11.13;;;8.32;;
16478;SDS011;8350;52.316;10.530;2023-08-20T06:54:50;9.98;;;8.20;;
16478;SDS011;8350;52.316;10.530;2023-08-20T06:57:18;8.38;;;7.50;;
16478;SDS011;8350;52.316;10.530;2023-08-20T06:59:55;7.70;;;6.78;;
16478;SDS011;8350;52.316;10.530;2023-08-20T07:02:22;8.95;;;7.05;;
16478;SDS011;8350;52.316;10.530;2023-08-20T07:04:49;9.57;;;7.13;;
16478;SDS011;8350;52.316;10.530;2023-08-20T07:07:16;8.07;;;7.20;;
16478;SDS011;8350;52.316;10.530;2023-08-20T07:09:43;6.68;;;6.07;;
16478;SDS011;8350;52.316;10.530;2023-08-20T07:12:10;7.32;;;6.13;;
16478;SDS011;8350;52.316;10.530;2023-08-20T07:14:38;7.40;;;6.20;;
16478;SDS011;8350;52.316;10.530;2023-08-20T07:17:07;6.63;;;5.40;;
16478;SDS011;8350;52.316;10.530;2023-08-20T07:19:37;8.13;;;5.53;;
16478;SDS011;8350;52.316;10.530;2023-08-20T07:22:03;5.72;;;5.22;;
16478;SDS011;8350;52.316;10.530;2023-08-20T07:24:31;7.47;;;5.20;;
16478;SDS011;8350;52.316;10.530;2023-08-20T07:27:02;5.60;;;5.03;;
16478;SDS011;8350;52.316;10.530;2023-08-20T07:29:35;5.50;;;4.65;;
16478;SDS011;8350;52.316;10.530;2023-08-20T07:32:06;4.43;;;4.03;;
16478;SDS011;8350;52.316;10.530;2023-08-20T07:34:33;6.20;;;4.25;;
16478;SDS011;8350;52.316;10.530;2023-08-20T07:37:00;5.35;;;4.05;;
16478;SDS011;8350;52.316;10.530;2023-08-20T07:39:27;4.78;;;4.28;;
16478;SDS011;8350;52.316;10.530;2023-08-20T07:41:54;6.15;;;4.22;;
16478;SDS011;8350;52.316;10.530;2023-08-20T07:44:22;5.07;;;4.18;;
16478;SDS011;8350;52.316;10.530;2023-08-20T07:46:48;6.60;;;4.35;;
16478;SDS011;8350;52.316;10.530;2023-08-20T07:49:17;5.45;;;4.35;;
16478;SDS011;8350;52.316;10.530;2023-08-20T07:51:44;5.65;;;4.32;;
16478;SDS011;8350;52.316;10.530;2023-08-20T07:54:11;7.03;;;4.75;;
16478;SDS011;8350;52.316;10.530;2023-08-20T07:56:38;4.95;;;3.90;;
16478;SDS011;8350;52.316;10.530;2023-08-20T07:59:05;6.40;;;3.95;;
16478;SDS011;8350;52.316;10.530;2023-08-20T08:01:31;5.82;;;3.95;;
16478;SDS011;8350;52.316;10.530;2023-08-20T08:03:58;5.18;;;3.88;;
16478;SDS011;8350;52.316;10.530;2023-08-20T08:06:27;7.43;;;4.20;;
16478;SDS011;8350;52.316;10.530;2023-08-20T08:08:54;4.40;;;4.00;;
16478;SDS011;8350;52.316;10.530;2023-08-20T08:11:21;5.28;;;4.20;;
16478;SDS011;8350;52.316;10.530;2023-08-20T08:13:47;3.50;;;3.20;;
16478;SDS011;8350;52.316;10.530;2023-08-20T08:16:14;3.78;;;3.35;;
16478;SDS011;8350;52.316;10.530;2023-08-20T08:18:42;3.53;;;3.17;;
16478;SDS011;8350;52.316;10.530;2023-08-20T08:21:08;3.72;;;3.42;;
16478;SDS011;8350;52.316;10.530;2023-08-20T08:23:37;4.97;;;3.47;;
16478;SDS011;8350;52.316;10.530;2023-08-20T08:26:04;5.30;;;3.60;;
16478;SDS011;8350;52.316;10.530;2023-08-20T08:28:30;4.35;;;3.47;;
16478;SDS011;8350;52.316;10.530;2023-08-20T08:30:57;4.80;;;3.30;;
16478;SDS011;8350;52.316;10.530;2023-08-20T08:33:24;6.63;;;3.92;;
16478;SDS011;8350;52.316;10.530;2023-08-20T08:35:51;5.28;;;4.43;;
16478;SDS011;8350;52.316;10.530;2023-08-20T08:38:18;5.15;;;3.92;;
16478;SDS011;8350;52.316;10.530;2023-08-20T08:40:46;7.63;;;3.95;;
16478;SDS011;8350;52.316;10.530;2023-08-20T08:43:14;4.70;;;3.95;;
16478;SDS011;8350;52.316;10.530;2023-08-20T08:45:43;6.20;;;3.90;;
16478;SDS011;8350;52.316;10.530;2023-08-20T08:48:12;5.30;;;3.97;;
16478;SDS011;8350;52.316;10.530;2023-08-20T08:50:40;4.40;;;3.85;;
16478;SDS011;8350;52.316;10.530;2023-08-20T08:53:07;4.97;;;3.58;;
16478;SDS011;8350;52.316;10.530;2023-08-20T08:55:34;4.68;;;3.70;;
16478;SDS011;8350;52.316;10.530;2023-08-20T08:58:03;5.82;;;3.60;;
16478;SDS011;8350;52.316;10.530;2023-08-20T09:00:30;6.47;;;3.80;;
16478;SDS011;8350;52.316;10.530;2023-08-20T09:02:58;3.78;;;3.38;;
16478;SDS011;8350;52.316;10.530;2023-08-20T09:05:25;3.97;;;3.22;;
16478;SDS011;8350;52.316;10.530;2023-08-20T09:07:55;3.17;;;2.88;;
16478;SDS011;8350;52.316;10.530;2023-08-20T09:10:25;4.38;;;3.70;;
16478;SDS011;8350;52.316;10.530;2023-08-20T09:12:55;4.60;;;3.20;;
16478;SDS011;8350;52.316;10.530;2023-08-20T09:15:31;4.03;;;3.25;;
16478;SDS011;8350;52.316;10.530;2023-08-20T09:18:01;3.13;;;2.83;;
16478;SDS011;8350;52.316;10.530;2023-08-20T09:20:35;4.93;;;3.55;;
16478;SDS011;8350;52.316;10.530;2023-08-20T09:23:02;4.38;;;3.05;;
16478;SDS011;8350;52.316;10.530;2023-08-20T09:25:32;4.65;;;3.42;;
16478;SDS011;8350;52.316;10.530;2023-08-20T09:28:01;3.50;;;3.20;;
16478;SDS011;8350;52.316;10.530;2023-08-20T09:30:30;4.15;;;3.17;;
16478;SDS011;8350;52.316;10.530;2023-08-20T09:33:04;3.42;;;3.13;;
16478;SDS011;8350;52.316;10.530;2023-08-20T09:35:31;3.97;;;2.78;;
16478;SDS011;8350;52.316;10.530;2023-08-20T09:37:59;3.70;;;2.72;;
16478;SDS011;8350;52.316;10.530;2023-08-20T09:40:26;3.60;;;2.72;;
16478;SDS011;8350;52.316;10.530;2023-08-20T09:42:54;3.75;;;2.60;;
16478;SDS011;8350;52.316;10.530;2023-08-20T09:45:22;4.15;;;2.88;;
16478;SDS011;8350;52.316;10.530;2023-08-20T09:47:54;3.22;;;2.65;;
16478;SDS011;8350;52.316;10.530;2023-08-20T09:50:22;3.90;;;2.75;;
16478;SDS011;8350;52.316;10.530;2023-08-20T09:52:53;3.08;;;2.70;;
16478;SDS011;8350;52.316;10.530;2023-08-20T09:55:26;2.75;;;2.30;;
16478;SDS011;8350;52.316;10.530;2023-08-20T09:57:59;4.57;;;3.00;;
16478;SDS011;8350;52.316;10.530;2023-08-20T10:00:29;3.47;;;3.10;;
16478;SDS011;8350;52.316;10.530;2023-08-20T10:02:59;3.35;;;3.05;;
16478;SDS011;8350;52.316;10.530;2023-08-20T10:05:28;3.55;;;2.83;;
16478;SDS011;8350;52.316;10.530;2023-08-20T10:08:02;2.80;;;2.58;;
16478;SDS011;8350;52.316;10.530;2023-08-20T10:10:29;3.30;;;2.97;;
16478;SDS011;8350;52.316;10.530;2023-08-20T10:13:00;2.78;;;2.10;;
16478;SDS011;8350;52.316;10.530;2023-08-20T10:15:28;3.50;;;2.60;;
16478;SDS011;8350;52.316;10.530;2023-08-20T10:17:57;4.10;;;2.92;;
16478;SDS011;8350;52.316;10.530;2023-08-20T10:20:26;3.67;;;2.70;;
16478;SDS011;8350;52.316;10.530;2023-08-20T10:22:57;3.08;;;2.40;;
16478;SDS011;8350;52.316;10.530;2023-08-20T10:25:26;4.15;;;2.58;;
16478;SDS011;8350;52.316;10.530;2023-08-20T10:27:54;4.30;;;2.45;;
16478;SDS011;8350;52.316;10.530;2023-08-20T10:30:39;4.35;;;2.58;;
16478;SDS011;8350;52.316;10.530;2023-08-20T10:33:38;3.13;;;2.47;;
16478;SDS011;8350;52.316;10.530;2023-08-20T10:36:16;3.78;;;2.88;;
16478;SDS011;8350;52.316;10.530;2023-08-20T10:38:47;3.45;;;2.60;;
16478;SDS011;8350;52.316;10.530;2023-08-20T10:41:22;3.60;;;2.53;;
16478;SDS011;8350;52.316;10.530;2023-08-20T10:43:51;3.63;;;2.90;;
16478;SDS011;8350;52.316;10.530;2023-08-20T10:46:19;4.32;;;2.67;;
16478;SDS011;8350;52.316;10.530;2023-08-20T10:48:50;5.78;;;2.70;;
16478;SDS011;8350;52.316;10.530;2023-08-20T10:51:19;5.28;;;2.83;;
16478;SDS011;8350;52.316;10.530;2023-08-20T10:54:03;4.22;;;2.92;;
16478;SDS011;8350;52.316;10.530;2023-08-20T10:56:38;3.47;;;2.42;;
16478;SDS011;8350;52.316;10.530;2023-08-20T10:59:07;2.45;;;2.15;;
16478;SDS011;8350;52.316;10.530;2023-08-20T11:01:34;5.82;;;3.03;;
16478;SDS011;8350;52.316;10.530;2023-08-20T11:04:03;3.17;;;2.60;;
16478;SDS011;8350;52.316;10.530;2023-08-20T11:06:32;3.75;;;2.88;;
16478;SDS011;8350;52.316;10.530;2023-08-20T11:09:00;2.47;;;2.15;;
16478;SDS011;8350;52.316;10.530;2023-08-20T11:11:29;5.32;;;3.03;;
16478;SDS011;8350;52.316;10.530;2023-08-20T11:13:57;3.47;;;3.13;;
16478;SDS011;8350;52.316;10.530;2023-08-20T11:16:33;3.17;;;2.72;;
16478;SDS011;8350;52.316;10.530;2023-08-20T11:19:02;3.05;;;2.60;;
16478;SDS011;8350;52.316;10.530;2023-08-20T11:21:33;4.00;;;2.50;;
16478;SDS011;8350;52.316;10.530;2023-08-20T11:24:00;2.80;;;2.60;;
16478;SDS011;8350;52.316;10.530;2023-08-20T11:26:28;3.47;;;2.60;;
16478;SDS011;8350;52.316;10.530;2023-08-20T11:28:55;3.63;;;2.55;;
16478;SDS011;8350;52.316;10.530;2023-08-20T11:31:22;3.10;;;2.80;;
16478;SDS011;8350;52.316;10.530;2023-08-20T11:33:50;2.90;;;2.70;;
16478;SDS011;8350;52.316;10.530;2023-08-20T11:36:21;2.60;;;2.40;;
16478;SDS011;8350;52.316;10.530;2023-08-20T11:38:49;3.63;;;3.10;;
16478;SDS011;8350;52.316;10.530;2023-08-20T11:41:17;4.38;;;2.92;;
16478;SDS011;8350;52.316;10.530;2023-08-20T11:43:44;3.03;;;2.65;;
16478;SDS011;8350;52.316;10.530;2023-08-20T11:46:12;3.72;;;3.05;;
16478;SDS011;8350;52.316;10.530;2023-08-20T11:51:26;2.80;;;2.30;;
16478;SDS011;8350;52.316;10.530;2023-08-20T11:53:53;4.28;;;3.17;;
16478;SDS011;8350;52.316;10.530;2023-08-20T11:56:21;3.30;;;3.00;;
16478;SDS011;8350;52.316;10.530;2023-08-20T11:58:49;3.88;;;2.85;;
16478;SDS011;8350;52.316;10.530;2023-08-20T12:01:17;2.65;;;2.45;;
16478;SDS011;8350;52.316;10.530;2023-08-20T12:03:44;3.28;;;2.53;;
16478;SDS011;8350;52.316;10.530;2023-08-20T12:06:17;3.97;;;3.53;;
16478;SDS011;8350;52.316;10.530;2023-08-20T12:08:47;3.35;;;2.60;;
16478;SDS011;8350;52.316;10.530;2023-08-20T12:11:14;3.47;;;2.28;;
16478;SDS011;8350;52.316;10.530;2023-08-20T12:13:41;3.17;;;2.28;;
16478;SDS011;8350;52.316;10.530;2023-08-20T12:16:08;3.75;;;2.33;;
16478;SDS011;8350;52.316;10.530;2023-08-20T12:18:35;4.43;;;2.60;;
16478;SDS011;8350;52.316;10.530;2023-08-20T12:21:02;4.40;;;2.42;;
16478;SDS011;8350;52.316;10.530;2023-08-20T12:23:29;3.55;;;2.13;;
16478;SDS011;8350;52.316;10.530;2023-08-20T12:25:58;2.80;;;2.60;;
16478;SDS011;8350;52.316;10.530;2023-08-20T12:28:25;2.92;;;2.33;;
16478;SDS011;8350;52.316;10.530;2023-08-20T12:30:52;2.67;;;2.45;;
16478;SDS011;8350;52.316;10.530;2023-08-20T12:33:19;3.95;;;2.78;;
16478;SDS011;8350;52.316;10.530;2023-08-20T12:35:47;2.47;;;2.28;;
16478;SDS011;8350;52.316;10.530;2023-08-20T12:38:14;2.55;;;2.33;;
16478;SDS011;8350;52.316;10.530;2023-08-20T12:40:41;3.65;;;2.55;;
16478;SDS011;8350;52.316;10.530;2023-08-20T12:43:10;2.85;;;2.17;;
16478;SDS011;8350;52.316;10.530;2023-08-20T12:45:37;3.53;;;2.28;;
16478;SDS011;8350;52.316;10.530;2023-08-20T12:48:04;3.00;;;2.45;;
16478;SDS011;8350;52.316;10.530;2023-08-20T12:50:32;2.78;;;2.05;;
16478;SDS011;8350;52.316;10.530;2023-08-20T12:52:59;3.25;;;2.50;;
16478;SDS011;8350;52.316;10.530;2023-08-20T12:55:28;4.18;;;2.95;;
16478;SDS011;8350;52.316;10.530;2023-08-20T12:57:56;3.38;;;2.67;;
16478;SDS011;8350;52.316;10.530;2023-08-20T13:00:25;2.83;;;2.53;;
16478;SDS011;8350;52.316;10.530;2023-08-20T13:02:53;3.85;;;2.75;;
16478;SDS011;8350;52.316;10.530;2023-08-20T13:05:21;2.70;;;2.47;;
16478;SDS011;8350;52.316;10.530;2023-08-20T13:07:49;3.92;;;2.75;;
16478;SDS011;8350;52.316;10.530;2023-08-20T13:10:17;3.17;;;2.88;;
16478;SDS011;8350;52.316;10.530;2023-08-20T13:12:47;3.58;;;2.38;;
16478;SDS011;8350;52.316;10.530;2023-08-20T13:15:15;3.63;;;2.30;;
16478;SDS011;8350;52.316;10.530;2023-08-20T13:17:46;2.80;;;2.60;;
16478;SDS011;8350;52.316;10.530;2023-08-20T13:20:14;4.78;;;2.70;;
16478;SDS011;8350;52.316;10.530;2023-08-20T13:22:46;2.60;;;2.40;;
16478;SDS011;8350;52.316;10.530;2023-08-20T13:25:13;3.08;;;2.70;;
16478;SDS011;8350;52.316;10.530;2023-08-20T13:27:40;3.85;;;2.90;;
16478;SDS011;8350;52.316;10.530;2023-08-20T13:30:13;3.70;;;2.53;;
16478;SDS011;8350;52.316;10.530;2023-08-20T13:32:47;3.80;;;2.85;;
16478;SDS011;8350;52.316;10.530;2023-08-20T13:35:15;2.60;;;2.40;;
16478;SDS011;8350;52.316;10.530;2023-08-20T13:37:43;2.55;;;2.35;;
16478;SDS011;8350;52.316;10.530;2023-08-20T13:40:11;2.78;;;2.40;;
16478;SDS011;8350;52.316;10.530;2023-08-20T13:42:38;3.83;;;2.40;;
16478;SDS011;8350;52.316;10.530;2023-08-20T13:45:06;2.95;;;2.20;;
16478;SDS011;8350;52.316;10.530;2023-08-20T13:47:33;3.55;;;2.50;;
16478;SDS011;8350;52.316;10.530;2023-08-20T13:50:02;4.22;;;2.42;;
16478;SDS011;8350;52.316;10.530;2023-08-20T13:52:29;2.60;;;2.25;;
16478;SDS011;8350;52.316;10.530;2023-08-20T13:54:56;2.67;;;2.47;;
16478;SDS011;8350;52.316;10.530;2023-08-20T13:57:23;2.50;;;2.30;;
16478;SDS011;8350;52.316;10.530;2023-08-20T13:59:52;2.67;;;2.25;;
16478;SDS011;8350;52.316;10.530;2023-08-20T14:02:19;3.70;;;2.67;;
16478;SDS011;8350;52.316;10.530;2023-08-20T14:04:55;3.10;;;2.50;;
16478;SDS011;8350;52.316;10.530;2023-08-20T14:07:24;3.13;;;2.53;;
16478;SDS011;8350;52.316;10.530;2023-08-20T14:09:53;4.03;;;2.28;;
16478;SDS011;8350;52.316;10.530;2023-08-20T14:12:20;4.38;;;2.83;;
16478;SDS011;8350;52.316;10.530;2023-08-20T14:14:47;2.72;;;2.45;;
16478;SDS011;8350;52.316;10.530;2023-08-20T14:17:14;3.20;;;2.08;;
16478;SDS011;8350;52.316;10.530;2023-08-20T14:19:41;2.78;;;2.17;;
16478;SDS011;8350;52.316;10.530;2023-08-20T14:22:08;3.30;;;2.60;;
16478;SDS011;8350;52.316;10.530;2023-08-20T14:24:37;3.42;;;2.55;;
16478;SDS011;8350;52.316;10.530;2023-08-20T14:27:04;3.67;;;2.15;;
16478;SDS011;8350;52.316;10.530;2023-08-20T14:29:32;2.25;;;2.15;;
16478;SDS011;8350;52.316;10.530;2023-08-20T14:31:59;2.60;;;2.40;;
16478;SDS011;8350;52.316;10.530;2023-08-20T14:34:26;2.55;;;2.30;;
16478;SDS011;8350;52.316;10.530;2023-08-20T14:36:53;2.90;;;2.47;;
16478;SDS011;8350;52.316;10.530;2023-08-20T14:39:20;2.38;;;2.17;;
16478;SDS011;8350;52.316;10.530;2023-08-20T14:41:48;3.33;;;2.30;;
16478;SDS011;8350;52.316;10.530;2023-08-20T14:44:15;3.72;;;2.13;;
16478;SDS011;8350;52.316;10.530;2023-08-20T14:46:42;3.05;;;2.10;;